Startpagina
METAR-TAF:

METAR-TAF

Vliegvelden :

Châteauroux, Frankrijk

breedte: 46-51N, lengte: 001-43E, hoogte: 160 m

Actueel weer

Dit bericht is 20 minuten geleden gemaakt, om 13:00 UTC
Wind 10 kt uit het oosten, variërend tussen het noordnoordoosten en het oostzuidoosten
Temperatuur 24°C
Vochtigheid 29%
Druk 1016 hPa
Zicht 10 km of meer
geen wolken onder 1500 m en geen cumulonimbus

METAR: LFLX 301300Z AUTO 08010KT 030V110 CAVOK 24/05 Q1016 NOSIG

Tijdstip: 15:20 (13:20 UTC)

Verwachting

Dit bericht is 2 uur en het 20 minuten geleden gemaakt, om 11:00 UTC
Verwachting geldig van 30 om 12 UTC tot 31 om 18 UTC
Wind 8 kt uit het oostnoordoosten
Zicht 10 km of meer
geen wolken onder 1500 m en geen cumulonimbus

TAF: LFLX 301100Z 3012/3118 07008KT CAVOK

Waarnemingen en weersverwachtingen van meer dan 4000 vliegvelden (METAR en TAF).

De beschikbare stations zijn de gele en rode punten op de kaart.

Ga met uw muis naar het station om de naam te zien.

Klik dan om waarnemingen en weersverwachtingen te zien.

kaart wijzigen: klik op de groene knoppen met een zwart kruis om in te zoomen, op de groene knop met een streepje om uit te zoomen of op de groene pijlen voor aangrenzende kaarten.


METAR-TAF: